sensor_id;sensor_type;location;lat;lon;timestamp;pressure;altitude;pressure_sealevel;temperature;humidity
10638;BME280;47007;49.252;8.904;2022-10-30T00:00:47;100276.81;;;13.33;100.00
10638;BME280;47007;49.252;8.904;2022-10-30T00:03:15;100274.34;;;13.31;100.00
10638;BME280;47007;49.252;8.904;2022-10-30T00:05:44;100258.84;;;13.20;100.00
10638;BME280;47007;49.252;8.904;2022-10-30T00:08:12;100269.38;;;13.28;100.00
10638;BME280;47007;49.252;8.904;2022-10-30T00:10:40;100263.03;;;13.29;100.00
10638;BME280;47007;49.252;8.904;2022-10-30T00:13:07;100236.38;;;13.22;100.00
10638;BME280;47007;49.252;8.904;2022-10-30T00:15:34;100242.13;;;13.26;100.00
10638;BME280;47007;49.252;8.904;2022-10-30T00:18:01;100246.63;;;13.25;100.00
10638;BME280;47007;49.252;8.904;2022-10-30T00:20:28;100234.63;;;13.15;100.00
10638;BME280;47007;49.252;8.904;2022-10-30T00:22:55;100248.84;;;13.22;100.00
10638;BME280;47007;49.252;8.904;2022-10-30T00:25:23;100228.97;;;13.03;100.00
10638;BME280;47007;49.252;8.904;2022-10-30T00:27:49;100247.75;;;13.16;100.00
10638;BME280;47007;49.252;8.904;2022-10-30T00:30:16;100241.78;;;13.14;100.00
10638;BME280;47007;49.252;8.904;2022-10-30T00:32:44;100222.25;;;13.07;100.00
10638;BME280;47007;49.252;8.904;2022-10-30T00:35:11;100250.28;;;13.24;100.00
10638;BME280;47007;49.252;8.904;2022-10-30T00:37:38;100248.91;;;13.28;100.00
10638;BME280;47007;49.252;8.904;2022-10-30T00:40:05;100246.50;;;13.34;100.00
10638;BME280;47007;49.252;8.904;2022-10-30T00:42:33;100217.19;;;13.12;100.00
10638;BME280;47007;49.252;8.904;2022-10-30T00:45:02;100231.50;;;13.11;100.00
10638;BME280;47007;49.252;8.904;2022-10-30T00:47:37;100248.22;;;13.20;100.00
10638;BME280;47007;49.252;8.904;2022-10-30T00:50:33;100252.34;;;13.22;100.00
10638;BME280;47007;49.252;8.904;2022-10-30T00:53:06;100243.72;;;13.06;100.00
10638;BME280;47007;49.252;8.904;2022-10-30T00:55:41;100259.16;;;13.10;100.00
10638;BME280;47007;49.252;8.904;2022-10-30T00:58:13;100266.84;;;13.05;100.00
10638;BME280;47007;49.252;8.904;2022-10-30T01:00:49;100260.19;;;12.94;100.00
10638;BME280;47007;49.252;8.904;2022-10-30T01:03:19;100233.16;;;12.76;100.00
10638;BME280;47007;49.252;8.904;2022-10-30T01:05:52;100262.03;;;12.94;100.00
10638;BME280;47007;49.252;8.904;2022-10-30T01:08:20;100265.75;;;13.00;100.00
10638;BME280;47007;49.252;8.904;2022-10-30T01:10:47;100240.47;;;12.89;100.00
10638;BME280;47007;49.252;8.904;2022-10-30T01:13:16;100261.59;;;13.12;100.00
10638;BME280;47007;49.252;8.904;2022-10-30T01:18:33;100257.59;;;13.01;100.00
10638;BME280;47007;49.252;8.904;2022-10-30T01:29:54;100261.94;;;12.87;100.00
10638;BME280;47007;49.252;8.904;2022-10-30T01:35:30;100255.34;;;12.98;100.00
10638;BME280;47007;49.252;8.904;2022-10-30T01:38:16;100252.41;;;12.93;100.00
10638;BME280;47007;49.252;8.904;2022-10-30T01:40:47;100232.66;;;12.87;100.00
10638;BME280;47007;49.252;8.904;2022-10-30T01:43:14;100240.28;;;12.90;100.00
10638;BME280;47007;49.252;8.904;2022-10-30T01:51:40;100238.06;;;12.73;100.00
10638;BME280;47007;49.252;8.904;2022-10-30T01:59:36;100232.66;;;12.51;100.00
10638;BME280;47007;49.252;8.904;2022-10-30T02:02:06;100229.19;;;12.51;100.00
10638;BME280;47007;49.252;8.904;2022-10-30T02:04:34;100243.00;;;12.61;100.00
10638;BME280;47007;49.252;8.904;2022-10-30T02:07:02;100219.13;;;12.46;100.00
10638;BME280;47007;49.252;8.904;2022-10-30T02:09:34;100244.59;;;12.55;100.00
10638;BME280;47007;49.252;8.904;2022-10-30T02:12:01;100231.59;;;12.46;100.00
10638;BME280;47007;49.252;8.904;2022-10-30T02:14:33;100238.25;;;12.56;100.00
10638;BME280;47007;49.252;8.904;2022-10-30T02:17:04;100247.53;;;12.61;100.00
10638;BME280;47007;49.252;8.904;2022-10-30T02:19:32;100244.13;;;12.52;100.00
10638;BME280;47007;49.252;8.904;2022-10-30T02:22:01;100222.63;;;12.32;100.00
10638;BME280;47007;49.252;8.904;2022-10-30T02:24:29;100228.28;;;12.29;100.00
10638;BME280;47007;49.252;8.904;2022-10-30T02:26:57;100243.41;;;12.29;100.00
10638;BME280;47007;49.252;8.904;2022-10-30T02:29:24;100238.19;;;12.20;100.00
10638;BME280;47007;49.252;8.904;2022-10-30T02:31:51;100203.28;;;11.94;100.00
10638;BME280;47007;49.252;8.904;2022-10-30T02:34:18;100225.72;;;12.06;100.00
10638;BME280;47007;49.252;8.904;2022-10-30T02:36:44;100238.84;;;12.08;100.00
10638;BME280;47007;49.252;8.904;2022-10-30T02:39:11;100238.66;;;12.09;100.00
10638;BME280;47007;49.252;8.904;2022-10-30T02:41:38;100234.69;;;12.05;100.00
10638;BME280;47007;49.252;8.904;2022-10-30T02:44:05;100240.03;;;12.05;100.00
10638;BME280;47007;49.252;8.904;2022-10-30T02:46:32;100215.44;;;11.88;100.00
10638;BME280;47007;49.252;8.904;2022-10-30T02:48:59;100235.25;;;12.01;100.00
10638;BME280;47007;49.252;8.904;2022-10-30T02:51:26;100238.53;;;12.03;100.00
10638;BME280;47007;49.252;8.904;2022-10-30T02:53:53;100223.16;;;11.83;100.00
10638;BME280;47007;49.252;8.904;2022-10-30T02:56:19;100235.88;;;11.88;100.00
10638;BME280;47007;49.252;8.904;2022-10-30T02:58:46;100203.38;;;11.63;100.00
10638;BME280;47007;49.252;8.904;2022-10-30T03:01:16;100228.28;;;11.85;100.00
10638;BME280;47007;49.252;8.904;2022-10-30T03:03:44;100233.94;;;11.82;100.00
10638;BME280;47007;49.252;8.904;2022-10-30T03:06:13;100233.47;;;11.78;100.00
10638;BME280;47007;49.252;8.904;2022-10-30T03:08:41;100223.91;;;11.69;100.00
10638;BME280;47007;49.252;8.904;2022-10-30T03:11:10;100246.75;;;11.78;100.00
10638;BME280;47007;49.252;8.904;2022-10-30T03:13:38;100243.09;;;11.79;100.00
10638;BME280;47007;49.252;8.904;2022-10-30T03:16:20;100245.75;;;11.79;100.00
10638;BME280;47007;49.252;8.904;2022-10-30T03:18:48;100223.63;;;11.64;100.00
10638;BME280;47007;49.252;8.904;2022-10-30T03:21:17;100240.31;;;11.73;100.00
10638;BME280;47007;49.252;8.904;2022-10-30T03:23:44;100210.78;;;11.53;100.00
10638;BME280;47007;49.252;8.904;2022-10-30T03:26:11;100234.81;;;11.60;100.00
10638;BME280;47007;49.252;8.904;2022-10-30T03:28:47;100238.63;;;11.57;100.00
10638;BME280;47007;49.252;8.904;2022-10-30T03:31:16;100242.53;;;11.46;100.00
10638;BME280;47007;49.252;8.904;2022-10-30T03:33:44;100232.19;;;11.37;100.00
10638;BME280;47007;49.252;8.904;2022-10-30T03:36:12;100244.41;;;11.38;100.00
10638;BME280;47007;49.252;8.904;2022-10-30T03:38:40;100222.34;;;11.23;100.00
10638;BME280;47007;49.252;8.904;2022-10-30T03:41:08;100241.75;;;11.38;100.00
10638;BME280;47007;49.252;8.904;2022-10-30T03:43:35;100245.44;;;11.37;100.00
10638;BME280;47007;49.252;8.904;2022-10-30T03:46:02;100246.28;;;11.37;100.00
10638;BME280;47007;49.252;8.904;2022-10-30T03:48:29;100245.13;;;11.32;100.00
10638;BME280;47007;49.252;8.904;2022-10-30T03:50:58;100241.75;;;11.38;100.00
10638;BME280;47007;49.252;8.904;2022-10-30T03:53:26;100252.75;;;11.35;100.00
10638;BME280;47007;49.252;8.904;2022-10-30T03:55:59;100245.13;;;11.32;100.00
10638;BME280;47007;49.252;8.904;2022-10-30T03:58:30;100251.44;;;11.31;100.00
10638;BME280;47007;49.252;8.904;2022-10-30T04:01:04;100252.44;;;11.30;100.00
10638;BME280;47007;49.252;8.904;2022-10-30T04:03:34;100266.59;;;11.22;100.00
10638;BME280;47007;49.252;8.904;2022-10-30T04:06:01;100231.41;;;11.05;100.00
10638;BME280;47007;49.252;8.904;2022-10-30T04:08:28;100252.16;;;11.25;100.00
10638;BME280;47007;49.252;8.904;2022-10-30T04:10:56;100256.16;;;11.21;100.00
10638;BME280;47007;49.252;8.904;2022-10-30T04:13:23;100257.16;;;11.20;100.00
10638;BME280;47007;49.252;8.904;2022-10-30T04:15:52;100260.31;;;11.23;100.00
10638;BME280;47007;49.252;8.904;2022-10-30T04:18:23;100256.00;;;11.22;100.00
10638;BME280;47007;49.252;8.904;2022-10-30T04:20:58;100254.81;;;11.25;100.00
10638;BME280;47007;49.252;8.904;2022-10-30T04:23:25;100247.72;;;11.17;100.00
10638;BME280;47007;49.252;8.904;2022-10-30T04:25:52;100246.06;;;11.16;100.00
10638;BME280;47007;49.252;8.904;2022-10-30T04:28:19;100230.41;;;11.06;100.00
10638;BME280;47007;49.252;8.904;2022-10-30T04:30:47;100227.06;;;11.12;100.00
10638;BME280;47007;49.252;8.904;2022-10-30T04:33:15;100231.81;;;11.17;100.00
10638;BME280;47007;49.252;8.904;2022-10-30T04:35:42;100242.50;;;11.09;100.00
10638;BME280;47007;49.252;8.904;2022-10-30T04:38:14;100231.41;;;11.05;100.00
10638;BME280;47007;49.252;8.904;2022-10-30T04:40:43;100216.53;;;10.96;100.00
10638;BME280;47007;49.252;8.904;2022-10-30T04:43:11;100229.56;;;11.06;100.00
10638;BME280;47007;49.252;8.904;2022-10-30T04:45:39;100233.94;;;10.99;100.00
10638;BME280;47007;49.252;8.904;2022-10-30T04:48:14;100233.16;;;10.90;100.00
10638;BME280;47007;49.252;8.904;2022-10-30T04:50:42;100231.53;;;10.81;100.00
10638;BME280;47007;49.252;8.904;2022-10-30T04:53:15;100235.84;;;10.82;100.00
10638;BME280;47007;49.252;8.904;2022-10-30T04:55:44;100233.19;;;10.82;100.00
10638;BME280;47007;49.252;8.904;2022-10-30T04:58:12;100232.88;;;10.77;100.00
10638;BME280;47007;49.252;8.904;2022-10-30T05:00:42;100234.03;;;10.83;100.00
10638;BME280;47007;49.252;8.904;2022-10-30T05:03:18;100220.94;;;10.81;100.00
10638;BME280;47007;49.252;8.904;2022-10-30T05:05:47;100177.72;;;10.50;100.00
10638;BME280;47007;49.252;8.904;2022-10-30T05:08:21;100217.22;;;10.67;100.00
10638;BME280;47007;49.252;8.904;2022-10-30T05:10:48;100221.69;;;10.67;100.00
10638;BME280;47007;49.252;8.904;2022-10-30T05:13:15;100219.75;;;10.61;100.00
10638;BME280;47007;49.252;8.904;2022-10-30T05:15:41;100224.34;;;10.67;100.00
10638;BME280;47007;49.252;8.904;2022-10-30T05:18:08;100207.16;;;10.63;100.00
10638;BME280;47007;49.252;8.904;2022-10-30T05:20:35;100221.16;;;10.71;100.00
10638;BME280;47007;49.252;8.904;2022-10-30T05:23:02;100205.69;;;10.52;100.00
10638;BME280;47007;49.252;8.904;2022-10-30T05:25:30;100210.13;;;10.60;100.00
10638;BME280;47007;49.252;8.904;2022-10-30T05:28:04;100205.50;;;10.54;100.00
10638;BME280;47007;49.252;8.904;2022-10-30T05:30:38;100214.78;;;10.58;100.00
10638;BME280;47007;49.252;8.904;2022-10-30T05:33:12;100209.66;;;10.56;100.00
10638;BME280;47007;49.252;8.904;2022-10-30T05:35:41;100207.34;;;10.53;100.00
10638;BME280;47007;49.252;8.904;2022-10-30T05:38:09;100199.09;;;10.48;100.00
10638;BME280;47007;49.252;8.904;2022-10-30T05:40:36;100216.94;;;10.54;100.00
10638;BME280;47007;49.252;8.904;2022-10-30T05:43:03;100223.13;;;10.47;100.00
10638;BME280;47007;49.252;8.904;2022-10-30T05:45:31;100221.31;;;10.39;100.00
10638;BME280;47007;49.252;8.904;2022-10-30T05:48:04;100219.88;;;10.28;100.00
10638;BME280;47007;49.252;8.904;2022-10-30T05:50:38;100226.19;;;10.19;100.00
10638;BME280;47007;49.252;8.904;2022-10-30T05:53:18;100226.53;;;10.08;100.00
10638;BME280;47007;49.252;8.904;2022-10-30T05:55:44;100240.72;;;10.15;100.00
10638;BME280;47007;49.252;8.904;2022-10-30T05:58:17;100237.63;;;10.20;100.00
10638;BME280;47007;49.252;8.904;2022-10-30T06:00:45;100239.09;;;10.22;100.00
10638;BME280;47007;49.252;8.904;2022-10-30T06:03:17;100232.44;;;10.26;100.00
10638;BME280;47007;49.252;8.904;2022-10-30T06:05:45;100233.41;;;10.41;100.00
10638;BME280;47007;49.252;8.904;2022-10-30T06:08:13;100240.53;;;10.41;100.00
10638;BME280;47007;49.252;8.904;2022-10-30T06:10:42;100219.88;;;10.28;100.00
10638;BME280;47007;49.252;8.904;2022-10-30T06:13:15;100240.72;;;10.31;100.00
10638;BME280;47007;49.252;8.904;2022-10-30T06:15:53;100236.47;;;10.22;100.00
10638;BME280;47007;49.252;8.904;2022-10-30T06:18:20;100234.94;;;10.28;100.00
10638;BME280;47007;49.252;8.904;2022-10-30T06:20:53;100221.41;;;10.06;100.00
10638;BME280;47007;49.252;8.904;2022-10-30T06:23:29;100196.47;;;9.85;100.00
10638;BME280;47007;49.252;8.904;2022-10-30T06:26:06;100216.34;;;9.89;100.00
10638;BME280;47007;49.252;8.904;2022-10-30T06:28:38;100230.56;;;9.88;100.00
10638;BME280;47007;49.252;8.904;2022-10-30T06:31:05;100228.22;;;10.01;100.00
10638;BME280;47007;49.252;8.904;2022-10-30T06:33:36;100226.03;;;10.04;100.00
10638;BME280;47007;49.252;8.904;2022-10-30T06:36:03;100239.44;;;10.11;100.00
10638;BME280;47007;49.252;8.904;2022-10-30T06:38:31;100212.34;;;9.93;100.00
10638;BME280;47007;49.252;8.904;2022-10-30T06:40:58;100226.69;;;10.06;100.00
10638;BME280;47007;49.252;8.904;2022-10-30T06:43:36;100240.94;;;10.14;100.00
10638;BME280;47007;49.252;8.904;2022-10-30T06:46:08;100252.47;;;10.29;100.00
10638;BME280;47007;49.252;8.904;2022-10-30T06:48:38;100253.00;;;10.24;100.00
10638;BME280;47007;49.252;8.904;2022-10-30T06:51:05;100249.88;;;10.13;100.00
10638;BME280;47007;49.252;8.904;2022-10-30T06:53:35;100243.28;;;10.00;100.00
10638;BME280;47007;49.252;8.904;2022-10-30T06:56:22;100245.44;;;9.97;100.00
10638;BME280;47007;49.252;8.904;2022-10-30T06:59:07;100257.47;;;10.16;100.00
10638;BME280;47007;49.252;8.904;2022-10-30T07:01:43;100256.63;;;10.15;100.00
10638;BME280;47007;49.252;8.904;2022-10-30T07:04:15;100262.91;;;10.14;100.00
10638;BME280;47007;49.252;8.904;2022-10-30T07:06:43;100208.38;;;9.81;100.00
10638;BME280;47007;49.252;8.904;2022-10-30T07:09:10;100263.41;;;10.18;100.00
10638;BME280;47007;49.252;8.904;2022-10-30T07:11:37;100280.13;;;10.26;100.00
10638;BME280;47007;49.252;8.904;2022-10-30T07:14:27;100286.56;;;10.40;100.00
10638;BME280;47007;49.252;8.904;2022-10-30T07:17:11;100254.91;;;10.47;100.00
10638;BME280;47007;49.252;8.904;2022-10-30T07:19:40;100275.97;;;10.79;100.00
10638;BME280;47007;49.252;8.904;2022-10-30T07:22:07;100274.06;;;10.96;100.00
10638;BME280;47007;49.252;8.904;2022-10-30T07:24:36;100259.16;;;10.95;100.00
10638;BME280;47007;49.252;8.904;2022-10-30T07:27:15;100272.53;;;11.01;100.00
10638;BME280;47007;49.252;8.904;2022-10-30T07:30:02;100279.09;;;11.13;100.00
10638;BME280;47007;49.252;8.904;2022-10-30T07:32:39;100279.69;;;11.24;100.00
10638;BME280;47007;49.252;8.904;2022-10-30T07:35:13;100289.34;;;11.39;100.00
10638;BME280;47007;49.252;8.904;2022-10-30T07:38:03;100260.13;;;11.47;100.00
10638;BME280;47007;49.252;8.904;2022-10-30T07:40:42;100256.03;;;11.60;100.00
10638;BME280;47007;49.252;8.904;2022-10-30T07:43:28;100282.44;;;12.13;100.00
10638;BME280;47007;49.252;8.904;2022-10-30T07:46:21;100281.63;;;12.42;100.00
10638;BME280;47007;49.252;8.904;2022-10-30T07:49:13;100245.28;;;12.64;100.00
10638;BME280;47007;49.252;8.904;2022-10-30T07:51:46;100251.63;;;12.99;100.00
10638;BME280;47007;49.252;8.904;2022-10-30T07:54:14;100274.13;;;13.54;100.00
10638;BME280;47007;49.252;8.904;2022-10-30T07:56:41;100265.88;;;13.98;100.00
10638;BME280;47007;49.252;8.904;2022-10-30T07:59:26;100246.19;;;14.27;100.00
10638;BME280;47007;49.252;8.904;2022-10-30T08:01:56;100221.81;;;14.36;100.00
10638;BME280;47007;49.252;8.904;2022-10-30T08:04:44;100240.03;;;14.67;100.00
10638;BME280;47007;49.252;8.904;2022-10-30T08:07:32;100233.34;;;14.91;100.00
10638;BME280;47007;49.252;8.904;2022-10-30T08:09:59;100237.69;;;15.12;100.00
10638;BME280;47007;49.252;8.904;2022-10-30T08:12:26;100228.88;;;15.25;100.00
10638;BME280;47007;49.252;8.904;2022-10-30T08:14:54;100218.00;;;15.46;100.00
10638;BME280;47007;49.252;8.904;2022-10-30T08:17:21;100200.75;;;15.49;100.00
10638;BME280;47007;49.252;8.904;2022-10-30T08:19:48;100203.88;;;15.78;100.00
10638;BME280;47007;49.252;8.904;2022-10-30T08:22:16;100204.41;;;16.13;100.00
10638;BME280;47007;49.252;8.904;2022-10-30T08:24:47;100203.31;;;16.34;100.00
10638;BME280;47007;49.252;8.904;2022-10-30T08:27:15;100195.22;;;16.47;100.00
10638;BME280;47007;49.252;8.904;2022-10-30T08:29:41;100172.94;;;16.60;100.00
10638;BME280;47007;49.252;8.904;2022-10-30T08:32:08;100176.88;;;16.64;100.00
10638;BME280;47007;49.252;8.904;2022-10-30T08:34:53;100188.28;;;16.84;100.00
10638;BME280;47007;49.252;8.904;2022-10-30T08:37:20;100165.53;;;17.00;100.00
10638;BME280;47007;49.252;8.904;2022-10-30T08:39:47;100173.81;;;17.23;100.00
10638;BME280;47007;49.252;8.904;2022-10-30T08:42:49;100160.47;;;17.17;100.00
10638;BME280;47007;49.252;8.904;2022-10-30T08:45:17;100169.59;;;17.59;100.00
10638;BME280;47007;49.252;8.904;2022-10-30T08:47:56;100146.34;;;17.96;100.00
10638;BME280;47007;49.252;8.904;2022-10-30T08:50:26;100143.38;;;18.22;100.00
10638;BME280;47007;49.252;8.904;2022-10-30T08:52:53;100138.44;;;18.38;100.00
10638;BME280;47007;49.252;8.904;2022-10-30T08:55:20;100126.50;;;18.52;100.00
10638;BME280;47007;49.252;8.904;2022-10-30T08:57:47;100144.34;;;18.76;100.00
10638;BME280;47007;49.252;8.904;2022-10-30T09:00:14;100130.25;;;18.92;100.00
10638;BME280;47007;49.252;8.904;2022-10-30T09:03:00;100115.81;;;19.17;100.00
10638;BME280;47007;49.252;8.904;2022-10-30T09:05:31;100115.84;;;19.40;100.00
10638;BME280;47007;49.252;8.904;2022-10-30T09:08:16;100097.28;;;19.50;100.00
10638;BME280;47007;49.252;8.904;2022-10-30T09:11:05;100113.03;;;19.70;100.00
10638;BME280;47007;49.252;8.904;2022-10-30T09:13:32;100100.31;;;19.65;100.00
10638;BME280;47007;49.252;8.904;2022-10-30T09:16:01;100108.22;;;19.84;100.00
10638;BME280;47007;49.252;8.904;2022-10-30T09:18:31;100099.78;;;19.92;100.00
10638;BME280;47007;49.252;8.904;2022-10-30T09:20:58;100107.47;;;20.12;100.00
10638;BME280;47007;49.252;8.904;2022-10-30T09:23:32;100094.09;;;20.17;100.00
10638;BME280;47007;49.252;8.904;2022-10-30T09:26:22;100093.75;;;20.25;100.00
10638;BME280;47007;49.252;8.904;2022-10-30T09:28:54;100083.63;;;20.03;100.00
10638;BME280;47007;49.252;8.904;2022-10-30T09:31:39;100097.34;;;20.30;100.00
10638;BME280;47007;49.252;8.904;2022-10-30T09:34:12;100102.75;;;20.59;100.00
10638;BME280;47007;49.252;8.904;2022-10-30T09:36:41;100090.38;;;20.74;100.00
10638;BME280;47007;49.252;8.904;2022-10-30T09:39:11;100103.31;;;20.89;100.00
10638;BME280;47007;49.252;8.904;2022-10-30T09:55:32;100092.50;;;20.72;100.00
10638;BME280;47007;49.252;8.904;2022-10-30T10:00:52;100093.78;;;20.70;100.00
10638;BME280;47007;49.252;8.904;2022-10-30T10:03:47;100102.41;;;20.84;100.00
10638;BME280;47007;49.252;8.904;2022-10-30T10:06:43;100079.78;;;20.85;100.00
10638;BME280;47007;49.252;8.904;2022-10-30T10:09:33;100101.53;;;21.28;100.00
10638;BME280;47007;49.252;8.904;2022-10-30T10:12:44;100107.88;;;21.56;100.00
10638;BME280;47007;49.252;8.904;2022-10-30T10:15:35;100099.63;;;21.62;100.00
10638;BME280;47007;49.252;8.904;2022-10-30T10:18:13;100085.41;;;21.50;100.00
10638;BME280;47007;49.252;8.904;2022-10-30T10:20:44;100097.75;;;21.84;100.00
10638;BME280;47007;49.252;8.904;2022-10-30T10:23:48;100103.50;;;21.71;100.00
10638;BME280;47007;49.252;8.904;2022-10-30T10:26:26;100094.22;;;21.62;100.00
10638;BME280;47007;49.252;8.904;2022-10-30T10:34:20;100068.69;;;22.13;100.00
10638;BME280;47007;49.252;8.904;2022-10-30T10:37:40;100081.78;;;22.48;100.00
10638;BME280;47007;49.252;8.904;2022-10-30T10:39:59;100085.59;;;22.79;100.00
10638;BME280;47007;49.252;8.904;2022-10-30T10:42:33;100085.63;;;23.16;100.00
10638;BME280;47007;49.252;8.904;2022-10-30T10:45:15;100079.09;;;23.49;100.00
10638;BME280;47007;49.252;8.904;2022-10-30T10:50:39;100076.41;;;23.96;100.00
10638;BME280;47007;49.252;8.904;2022-10-30T10:53:30;100084.88;;;24.20;100.00
10638;BME280;47007;49.252;8.904;2022-10-30T10:55:59;100064.94;;;23.79;100.00
10638;BME280;47007;49.252;8.904;2022-10-30T10:58:49;100094.78;;;23.47;100.00
10638;BME280;47007;49.252;8.904;2022-10-30T11:01:21;100079.69;;;23.14;100.00
10638;BME280;47007;49.252;8.904;2022-10-30T11:06:24;100074.75;;;23.43;100.00
10638;BME280;47007;49.252;8.904;2022-10-30T11:08:59;100051.31;;;23.59;100.00
10638;BME280;47007;49.252;8.904;2022-10-30T11:11:27;100059.91;;;23.98;100.00
10638;BME280;47007;49.252;8.904;2022-10-30T11:13:54;100053.91;;;23.86;100.00
10638;BME280;47007;49.252;8.904;2022-10-30T11:18:55;100067.88;;;23.68;100.00
10638;BME280;47007;49.252;8.904;2022-10-30T11:21:25;100058.94;;;23.67;100.00
10638;BME280;47007;49.252;8.904;2022-10-30T11:23:52;100063.63;;;23.82;100.00
10638;BME280;47007;49.252;8.904;2022-10-30T11:28:57;100062.91;;;24.07;100.00
10638;BME280;47007;49.252;8.904;2022-10-30T11:34:38;100058.66;;;24.36;100.00
10638;BME280;47007;49.252;8.904;2022-10-30T11:37:28;100059.75;;;24.40;100.00
10638;BME280;47007;49.252;8.904;2022-10-30T11:40:02;100064.31;;;24.24;100.00
10638;BME280;47007;49.252;8.904;2022-10-30T11:42:29;100049.34;;;24.07;100.00
10638;BME280;47007;49.252;8.904;2022-10-30T11:44:56;100043.50;;;24.50;100.00
10638;BME280;47007;49.252;8.904;2022-10-30T11:47:32;100051.94;;;24.99;100.00
10638;BME280;47007;49.252;8.904;2022-10-30T11:50:03;100037.06;;;24.97;100.00
10638;BME280;47007;49.252;8.904;2022-10-30T11:52:37;100056.31;;;25.05;100.00
10638;BME280;47007;49.252;8.904;2022-10-30T11:55:28;100048.16;;;25.21;100.00
10638;BME280;47007;49.252;8.904;2022-10-30T11:57:57;100040.28;;;24.68;100.00
10638;BME280;47007;49.252;8.904;2022-10-30T12:00:30;100052.69;;;24.39;100.00
10638;BME280;47007;49.252;8.904;2022-10-30T12:02:58;100052.97;;;24.22;100.00
10638;BME280;47007;49.252;8.904;2022-10-30T12:11:03;100036.50;;;24.80;100.00
10638;BME280;47007;49.252;8.904;2022-10-30T12:13:32;100024.59;;;24.96;100.00
10638;BME280;47007;49.252;8.904;2022-10-30T12:16:14;100035.41;;;24.91;100.00
10638;BME280;47007;49.252;8.904;2022-10-30T12:18:53;100037.03;;;25.17;100.00
10638;BME280;47007;49.252;8.904;2022-10-30T12:21:25;100031.50;;;25.48;100.00
10638;BME280;47007;49.252;8.904;2022-10-30T12:23:55;100049.13;;;25.70;100.00
10638;BME280;47007;49.252;8.904;2022-10-30T12:26:23;100038.91;;;25.32;100.00
10638;BME280;47007;49.252;8.904;2022-10-30T12:28:58;100037.06;;;24.97;100.00
10638;BME280;47007;49.252;8.904;2022-10-30T12:36:43;100021.03;;;25.21;100.00
10638;BME280;47007;49.252;8.904;2022-10-30T12:42:25;100030.69;;;25.62;100.00
10638;BME280;47007;49.252;8.904;2022-10-30T12:45:08;100033.56;;;25.86;100.00
10638;BME280;47007;49.252;8.904;2022-10-30T12:47:45;100009.22;;;25.71;100.00
10638;BME280;47007;49.252;8.904;2022-10-30T12:52:55;100033.16;;;25.49;100.00
10638;BME280;47007;49.252;8.904;2022-10-30T12:55:32;100033.75;;;25.25;100.00
10638;BME280;47007;49.252;8.904;2022-10-30T13:03:41;100000.44;;;24.59;100.00
10638;BME280;47007;49.252;8.904;2022-10-30T13:06:17;100003.69;;;24.71;100.00
10638;BME280;47007;49.252;8.904;2022-10-30T13:11:57;99998.25;;;24.76;100.00
10638;BME280;47007;49.252;8.904;2022-10-30T13:14:41;100002.06;;;24.80;100.00
10638;BME280;47007;49.252;8.904;2022-10-30T13:17:10;99980.09;;;24.82;100.00
10638;BME280;47007;49.252;8.904;2022-10-30T13:19:43;100006.13;;;24.78;100.00
10638;BME280;47007;49.252;8.904;2022-10-30T13:27:42;99988.75;;;24.74;100.00
10638;BME280;47007;49.252;8.904;2022-10-30T13:30:20;99994.19;;;24.79;100.00
10638;BME280;47007;49.252;8.904;2022-10-30T13:35:29;99985.53;;;24.56;100.00
10638;BME280;47007;49.252;8.904;2022-10-30T13:40:59;99961.13;;;24.36;100.00
10638;BME280;47007;49.252;8.904;2022-10-30T13:43:48;99970.34;;;24.45;100.00
10638;BME280;47007;49.252;8.904;2022-10-30T13:52:19;99988.22;;;24.36;100.00
10638;BME280;47007;49.252;8.904;2022-10-30T13:54:59;99986.25;;;24.11;100.00
10638;BME280;47007;49.252;8.904;2022-10-30T13:57:35;100005.19;;;23.96;100.00
10638;BME280;47007;49.252;8.904;2022-10-30T14:00:19;100001.59;;;23.70;100.00
10638;BME280;47007;49.252;8.904;2022-10-30T14:03:19;99987.72;;;23.56;100.00
10638;BME280;47007;49.252;8.904;2022-10-30T14:05:49;99988.28;;;23.58;100.00
10638;BME280;47007;49.252;8.904;2022-10-30T14:08:34;99981.25;;;23.57;100.00
10638;BME280;47007;49.252;8.904;2022-10-30T14:11:06;99972.78;;;23.49;100.00
10638;BME280;47007;49.252;8.904;2022-10-30T14:16:41;99973.53;;;23.34;100.00
10638;BME280;47007;49.252;8.904;2022-10-30T14:19:13;99972.69;;;23.28;100.00
10638;BME280;47007;49.252;8.904;2022-10-30T14:21:54;99978.06;;;23.23;100.00
10638;BME280;47007;49.252;8.904;2022-10-30T14:24:33;99977.28;;;23.28;100.00
10638;BME280;47007;49.252;8.904;2022-10-30T14:46:03;99948.44;;;22.65;100.00
10638;BME280;47007;49.252;8.904;2022-10-30T14:51:21;99969.69;;;22.51;100.00
10638;BME280;47007;49.252;8.904;2022-10-30T14:53:58;99965.84;;;22.42;100.00
10638;BME280;47007;49.252;8.904;2022-10-30T14:56:43;99969.22;;;22.27;100.00
10638;BME280;47007;49.252;8.904;2022-10-30T15:07:46;99973.91;;;21.61;100.00
10638;BME280;47007;49.252;8.904;2022-10-30T15:10:18;99974.28;;;21.48;100.00
10638;BME280;47007;49.252;8.904;2022-10-30T15:13:37;99955.19;;;21.16;100.00
10638;BME280;47007;49.252;8.904;2022-10-30T15:15:44;99975.81;;;21.22;100.00
10638;BME280;47007;49.252;8.904;2022-10-30T15:18:17;99996.88;;;21.08;100.00
10638;BME280;47007;49.252;8.904;2022-10-30T15:20:52;99999.69;;;20.80;100.00
10638;BME280;47007;49.252;8.904;2022-10-30T15:25:49;99986.44;;;20.45;100.00
10638;BME280;47007;49.252;8.904;2022-10-30T15:28:20;100016.25;;;20.55;100.00